createdAt,value
2023-03-16T00:02:13.224Z,8.50
2023-03-16T00:04:41.578Z,8.70
2023-03-16T00:07:11.740Z,8.85
2023-03-16T00:09:41.164Z,10.25
2023-03-16T00:12:15.935Z,7.60
2023-03-16T00:14:45.022Z,10.57
2023-03-16T00:17:19.035Z,9.27
2023-03-16T00:20:15.383Z,11.15
2023-03-16T00:22:43.412Z,8.73
2023-03-16T00:25:12.506Z,10.30
2023-03-16T00:27:42.251Z,9.30
2023-03-16T00:30:11.656Z,7.70
2023-03-16T00:32:40.046Z,8.52
2023-03-16T00:35:09.617Z,11.00
2023-03-16T00:37:39.482Z,9.25
2023-03-16T00:40:09.453Z,7.18
2023-03-16T00:42:37.405Z,8.75
2023-03-16T00:45:08.393Z,8.13
2023-03-16T00:47:36.292Z,8.68
2023-03-16T00:50:04.317Z,9.02
2023-03-16T00:52:32.446Z,6.78
2023-03-16T00:55:00.387Z,9.88
2023-03-16T00:57:30.128Z,8.45
2023-03-16T00:59:59.304Z,7.38
2023-03-16T01:02:29.352Z,6.78
2023-03-16T01:04:57.393Z,6.97
2023-03-16T01:07:26.815Z,12.98
2023-03-16T01:09:54.657Z,9.77
2023-03-16T01:12:22.682Z,11.63
2023-03-16T01:14:50.951Z,6.40
2023-03-16T01:17:19.161Z,8.10
2023-03-16T01:19:48.670Z,8.38
2023-03-16T01:22:17.449Z,12.77
2023-03-16T01:24:46.687Z,6.68
2023-03-16T01:27:15.888Z,10.18
2023-03-16T01:29:44.632Z,7.28
2023-03-16T01:32:13.722Z,8.63
2023-03-16T01:34:42.203Z,7.63
2023-03-16T01:37:13.995Z,8.13
2023-03-16T01:39:56.663Z,4.90
2023-03-16T01:42:25.105Z,9.05
2023-03-16T01:44:56.206Z,7.55
2023-03-16T01:47:29.477Z,8.10
2023-03-16T01:49:58.516Z,6.93
2023-03-16T01:52:34.905Z,7.20
2023-03-16T01:55:07.941Z,6.75
2023-03-16T01:57:42.691Z,7.90
2023-03-16T02:00:19.003Z,6.33
2023-03-16T02:03:07.852Z,8.15
2023-03-16T02:05:49.964Z,8.13
2023-03-16T02:08:20.498Z,4.70
2023-03-16T02:10:48.656Z,5.97
2023-03-16T02:13:17.070Z,6.88
2023-03-16T02:15:45.761Z,6.53
2023-03-16T02:18:14.439Z,5.95
2023-03-16T02:20:49.701Z,7.85
2023-03-16T02:23:22.178Z,8.32
2023-03-16T02:25:56.983Z,7.00
2023-03-16T02:28:35.666Z,7.35
2023-03-16T02:31:07.971Z,8.60
2023-03-16T02:33:36.623Z,7.75
2023-03-16T02:36:06.009Z,7.63
2023-03-16T02:38:33.893Z,7.63
2023-03-16T02:41:11.812Z,9.43
2023-03-16T02:43:44.081Z,6.95
2023-03-16T02:46:27.749Z,6.90
2023-03-16T02:49:02.924Z,9.00
2023-03-16T02:51:32.414Z,5.90
2023-03-16T02:54:00.298Z,7.00
2023-03-16T02:56:30.541Z,9.70
2023-03-16T02:58:58.624Z,8.73
2023-03-16T03:01:29.827Z,7.97
2023-03-16T03:03:57.790Z,8.80
2023-03-16T03:06:26.654Z,7.75
2023-03-16T03:08:55.959Z,6.45
2023-03-16T03:11:24.145Z,5.63
2023-03-16T03:13:52.145Z,8.10
2023-03-16T03:16:23.729Z,5.65
2023-03-16T03:18:53.830Z,8.90
2023-03-16T03:21:22.294Z,8.30
2023-03-16T03:23:50.453Z,7.25
2023-03-16T03:26:19.920Z,7.50
2023-03-16T03:28:49.359Z,8.05
2023-03-16T03:31:18.062Z,5.30
2023-03-16T03:33:46.384Z,5.22
2023-03-16T03:36:16.081Z,7.72
2023-03-16T03:38:45.831Z,7.13
2023-03-16T03:41:14.245Z,8.00
2023-03-16T03:43:42.350Z,5.60
2023-03-16T03:46:15.838Z,6.20
2023-03-16T03:48:43.838Z,7.53
2023-03-16T03:51:12.038Z,5.78
2023-03-16T03:54:00.593Z,6.45
2023-03-16T03:56:52.497Z,7.63
2023-03-16T03:59:22.509Z,7.15
2023-03-16T04:02:05.468Z,2.13
2023-03-16T04:04:47.929Z,7.00
2023-03-16T04:07:16.450Z,6.35
2023-03-16T04:09:47.412Z,11.05
2023-03-16T04:12:29.690Z,7.65
2023-03-16T04:14:57.830Z,7.20
2023-03-16T04:17:28.547Z,7.70
2023-03-16T04:19:59.646Z,5.75
2023-03-16T04:22:30.467Z,6.80
2023-03-16T04:25:00.045Z,5.57
2023-03-16T04:27:30.199Z,7.88
2023-03-16T04:29:59.651Z,8.90
2023-03-16T04:32:28.277Z,8.00
2023-03-16T04:34:58.567Z,8.10
2023-03-16T04:37:37.978Z,5.60
2023-03-16T04:40:16.514Z,7.65
2023-03-16T04:42:49.916Z,8.95
2023-03-16T04:45:20.956Z,6.15
2023-03-16T04:47:52.012Z,7.25
2023-03-16T04:50:20.073Z,14.27
2023-03-16T04:52:52.618Z,8.10
2023-03-16T04:55:23.766Z,8.93
2023-03-16T04:57:53.525Z,9.50
2023-03-16T05:00:23.699Z,10.98
2023-03-16T05:03:15.108Z,7.40
2023-03-16T05:05:43.273Z,11.80
2023-03-16T05:08:12.400Z,10.82
2023-03-16T05:10:44.636Z,8.90
2023-03-16T05:13:13.229Z,7.55
2023-03-16T05:15:41.272Z,9.13
2023-03-16T05:18:20.624Z,10.75
2023-03-16T05:20:51.822Z,7.07
2023-03-16T05:23:20.686Z,7.53
2023-03-16T05:25:59.752Z,8.80
2023-03-16T05:28:28.726Z,9.93
2023-03-16T05:31:04.056Z,8.15
2023-03-16T05:33:38.718Z,8.18
2023-03-16T05:36:11.069Z,8.60
2023-03-16T05:38:40.810Z,7.75
2023-03-16T05:41:14.875Z,8.18
2023-03-16T05:44:12.503Z,7.60
2023-03-16T05:46:59.267Z,8.23
2023-03-16T05:49:27.540Z,8.07
2023-03-16T05:51:56.383Z,9.32
2023-03-16T05:54:24.812Z,8.70
2023-03-16T05:56:55.506Z,10.70
2023-03-16T05:59:23.470Z,9.63
2023-03-16T06:01:56.275Z,8.75
2023-03-16T06:04:24.318Z,8.90
2023-03-16T06:06:52.505Z,8.88
2023-03-16T06:09:23.365Z,8.00
2023-03-16T06:11:51.317Z,12.15
2023-03-16T06:14:21.349Z,10.65
2023-03-16T06:16:51.054Z,7.30
2023-03-16T06:19:19.130Z,10.00
2023-03-16T06:21:51.996Z,10.32
2023-03-16T06:24:20.132Z,9.63
2023-03-16T06:26:48.289Z,9.70
2023-03-16T06:29:17.750Z,11.77
2023-03-16T06:31:47.650Z,8.98
2023-03-16T06:34:16.050Z,11.50
2023-03-16T06:36:44.156Z,8.57
2023-03-16T06:39:14.713Z,10.20
2023-03-16T06:41:46.274Z,9.63
2023-03-16T06:44:16.758Z,11.60
2023-03-16T06:46:58.529Z,10.57
2023-03-16T06:49:26.484Z,10.43
2023-03-16T06:51:55.084Z,8.57
2023-03-16T06:54:25.449Z,10.88
2023-03-16T06:56:53.893Z,10.60
2023-03-16T06:59:23.041Z,10.98
2023-03-16T07:01:51.686Z,9.00
2023-03-16T07:04:21.794Z,9.85
2023-03-16T07:06:51.397Z,10.85
2023-03-16T07:09:19.260Z,12.18
2023-03-16T07:11:47.243Z,11.25
2023-03-16T07:14:16.597Z,10.80
2023-03-16T07:16:45.272Z,8.65
2023-03-16T07:19:13.423Z,8.20
2023-03-16T07:21:42.784Z,9.52
2023-03-16T07:24:15.947Z,12.35
2023-03-16T07:26:44.273Z,11.57
2023-03-16T07:29:17.076Z,12.35
2023-03-16T07:31:45.026Z,10.20
2023-03-16T07:34:18.702Z,10.30
2023-03-16T07:36:53.579Z,11.45
2023-03-16T07:39:24.533Z,8.27
2023-03-16T07:41:57.813Z,9.77
2023-03-16T07:44:52.170Z,9.63
2023-03-16T07:47:20.392Z,10.18
2023-03-16T07:49:49.711Z,10.70
2023-03-16T07:52:19.375Z,11.23
2023-03-16T07:54:48.965Z,9.30
2023-03-16T07:57:17.093Z,8.88
2023-03-16T07:59:45.590Z,11.10
2023-03-16T08:02:18.701Z,9.30
2023-03-16T08:04:47.503Z,5.53
2023-03-16T08:07:17.451Z,7.70
2023-03-16T08:10:07.785Z,8.88
2023-03-16T08:12:44.649Z,7.00
2023-03-16T08:15:12.847Z,9.00
2023-03-16T08:17:42.447Z,7.13
2023-03-16T08:20:15.965Z,9.48
2023-03-16T08:22:46.570Z,10.43
2023-03-16T08:25:20.013Z,9.10
2023-03-16T08:28:09.451Z,7.88
2023-03-16T08:30:37.829Z,6.75
2023-03-16T08:33:29.002Z,7.18
2023-03-16T08:35:57.172Z,7.90
2023-03-16T08:38:25.374Z,8.38
2023-03-16T08:40:55.574Z,7.10
2023-03-16T08:43:23.934Z,7.78
2023-03-16T08:45:53.807Z,6.75
2023-03-16T08:48:24.821Z,7.53
2023-03-16T08:50:53.915Z,9.93
2023-03-16T08:53:22.474Z,7.75
2023-03-16T08:55:50.533Z,4.55
2023-03-16T08:58:19.905Z,6.70
2023-03-16T09:00:50.216Z,7.90
2023-03-16T09:03:18.466Z,6.90
2023-03-16T09:05:46.976Z,6.07
2023-03-16T09:08:14.830Z,6.85
2023-03-16T09:10:43.227Z,5.38
2023-03-16T09:13:11.142Z,6.70
2023-03-16T09:15:40.759Z,5.70
2023-03-16T09:18:08.785Z,4.50
2023-03-16T09:20:37.611Z,2.97
2023-03-16T09:23:05.797Z,6.15
2023-03-16T09:25:33.830Z,6.10
2023-03-16T09:28:01.692Z,5.88
2023-03-16T09:30:29.964Z,7.32
2023-03-16T09:33:00.201Z,6.05
2023-03-16T09:35:28.385Z,8.30
2023-03-16T09:38:06.226Z,8.23
2023-03-16T09:40:36.008Z,5.80
2023-03-16T09:43:21.915Z,8.35
2023-03-16T09:45:57.749Z,8.77
2023-03-16T09:48:31.713Z,6.05
2023-03-16T09:51:01.664Z,7.80
2023-03-16T09:53:31.342Z,7.15
2023-03-16T09:56:03.546Z,6.45
2023-03-16T09:58:32.886Z,6.32
2023-03-16T10:01:09.985Z,4.15
2023-03-16T10:03:57.201Z,6.03
2023-03-16T10:06:26.423Z,4.93
2023-03-16T10:09:04.761Z,4.90
2023-03-16T10:11:36.653Z,6.78
2023-03-16T10:14:17.641Z,5.82
2023-03-16T10:16:50.480Z,9.13
2023-03-16T10:19:23.774Z,5.38
2023-03-16T10:21:55.527Z,8.38
2023-03-16T10:24:35.788Z,6.35
2023-03-16T10:27:06.032Z,7.05
2023-03-16T10:29:38.617Z,6.30
2023-03-16T10:32:14.182Z,4.72
2023-03-16T10:34:46.587Z,4.53
2023-03-16T10:37:15.475Z,8.65
2023-03-16T10:39:43.939Z,6.05
2023-03-16T10:42:17.903Z,6.00
2023-03-16T10:44:46.729Z,6.93
2023-03-16T10:47:19.863Z,6.05
2023-03-16T10:49:51.416Z,8.05
2023-03-16T10:52:25.831Z,6.13
2023-03-16T10:54:57.579Z,6.32
2023-03-16T10:57:27.937Z,5.30
2023-03-16T10:59:57.846Z,4.72
2023-03-16T11:02:32.775Z,6.20
2023-03-16T11:05:13.307Z,4.15
2023-03-16T11:07:47.947Z,4.65
2023-03-16T11:10:27.746Z,4.93
2023-03-16T11:12:59.954Z,4.75
2023-03-16T11:15:38.321Z,7.65
2023-03-16T11:18:08.984Z,4.78
2023-03-16T11:20:38.783Z,6.22
2023-03-16T11:23:18.280Z,3.75
2023-03-16T11:25:51.816Z,5.38
2023-03-16T11:28:31.722Z,3.15
2023-03-16T11:31:12.744Z,3.70
2023-03-16T11:33:40.783Z,4.10
2023-03-16T11:36:27.791Z,6.03
2023-03-16T11:39:05.735Z,2.72
2023-03-16T11:41:44.526Z,4.20
2023-03-16T11:44:22.425Z,3.67
2023-03-16T11:46:59.033Z,4.35
2023-03-16T11:49:44.378Z,3.95
2023-03-16T11:52:24.638Z,2.45
2023-03-16T11:55:09.122Z,4.53
2023-03-16T11:57:51.812Z,5.57
2023-03-16T12:00:35.784Z,2.88
2023-03-16T12:03:33.656Z,4.20
2023-03-16T12:06:22.511Z,2.92
2023-03-16T12:09:06.461Z,5.30
2023-03-16T12:11:43.575Z,3.95
2023-03-16T12:14:19.908Z,3.10
2023-03-16T12:16:54.744Z,4.40
2023-03-16T12:19:28.538Z,3.45
2023-03-16T12:22:07.396Z,3.35
2023-03-16T12:24:42.559Z,3.95
2023-03-16T12:27:15.987Z,5.07
2023-03-16T12:29:56.936Z,2.55
2023-03-16T12:32:37.601Z,3.50
2023-03-16T12:35:18.759Z,2.97
2023-03-16T12:37:55.536Z,5.03
2023-03-16T12:40:33.764Z,3.42
2023-03-16T12:43:15.886Z,3.28
2023-03-16T12:45:53.207Z,4.40
2023-03-16T12:48:29.020Z,2.50
2023-03-16T12:51:00.875Z,2.95
2023-03-16T12:53:39.353Z,3.03
2023-03-16T12:56:11.834Z,2.22
2023-03-16T12:58:45.559Z,2.35
2023-03-16T13:01:16.812Z,5.18
2023-03-16T13:03:48.093Z,6.22
2023-03-16T13:06:25.011Z,1.40
2023-03-16T13:08:59.739Z,4.38
2023-03-16T13:11:29.645Z,3.47
2023-03-16T13:14:10.967Z,2.05
2023-03-16T13:16:40.439Z,4.53
2023-03-16T13:19:29.421Z,4.07
2023-03-16T13:22:08.299Z,3.35
2023-03-16T13:24:39.999Z,3.55
2023-03-16T13:27:21.129Z,3.15
2023-03-16T13:30:05.499Z,2.40
2023-03-16T13:32:34.785Z,4.17
2023-03-16T13:35:05.978Z,2.83
2023-03-16T13:37:34.013Z,4.93
2023-03-16T13:40:04.367Z,3.00
2023-03-16T13:42:34.619Z,4.05
2023-03-16T13:45:14.265Z,4.10
2023-03-16T13:47:44.341Z,5.63
2023-03-16T13:50:13.753Z,3.80
2023-03-16T13:52:43.234Z,5.18
2023-03-16T13:55:17.223Z,3.35
2023-03-16T13:57:47.544Z,3.55
2023-03-16T14:00:20.429Z,4.45
2023-03-16T14:02:52.971Z,3.45
2023-03-16T14:05:24.453Z,3.72
2023-03-16T14:07:53.698Z,4.68
2023-03-16T14:10:22.805Z,3.88
2023-03-16T14:12:57.636Z,4.18
2023-03-16T14:15:28.128Z,4.35
2023-03-16T14:18:09.956Z,2.70
2023-03-16T14:20:41.479Z,3.92
2023-03-16T14:23:19.437Z,5.65
2023-03-16T14:25:49.002Z,5.22
2023-03-16T14:28:32.841Z,3.47
2023-03-16T14:31:07.262Z,3.67
2023-03-16T14:33:37.770Z,6.47
2023-03-16T14:36:13.197Z,3.45
2023-03-16T14:41:21.844Z,5.35
2023-03-16T14:43:54.012Z,4.63
2023-03-16T14:46:29.395Z,3.67
2023-03-16T14:49:03.624Z,4.22
2023-03-16T14:51:32.764Z,4.95
2023-03-16T14:54:00.613Z,4.82
2023-03-16T14:56:35.192Z,6.35
2023-03-16T14:59:04.497Z,2.70
2023-03-16T15:01:32.556Z,3.53
2023-03-16T15:04:00.573Z,4.55
2023-03-16T15:06:31.143Z,4.75
2023-03-16T15:09:00.107Z,8.57
2023-03-16T15:11:31.627Z,5.18
2023-03-16T15:14:14.558Z,3.47
2023-03-16T15:16:44.046Z,6.18
2023-03-16T15:19:12.367Z,5.43
2023-03-16T15:21:40.213Z,6.28
2023-03-16T15:24:10.986Z,3.97
2023-03-16T15:26:39.076Z,3.78
2023-03-16T15:29:08.557Z,4.72
2023-03-16T15:31:36.400Z,3.63
2023-03-16T15:34:05.579Z,5.22
2023-03-16T15:36:33.500Z,3.67
2023-03-16T15:39:02.291Z,6.65
2023-03-16T15:41:38.302Z,3.40
2023-03-16T15:44:13.704Z,5.70
2023-03-16T15:46:41.605Z,3.05
2023-03-16T15:49:11.253Z,4.13
2023-03-16T15:51:39.298Z,4.00
2023-03-16T15:54:09.748Z,2.90
2023-03-16T15:56:53.407Z,3.90
2023-03-16T15:59:23.763Z,4.50
2023-03-16T16:01:52.687Z,5.13
2023-03-16T16:04:24.228Z,4.00
2023-03-16T16:06:55.078Z,4.45
2023-03-16T16:09:23.590Z,4.53
2023-03-16T16:11:51.689Z,4.15
2023-03-16T16:14:24.900Z,4.43
2023-03-16T16:16:54.374Z,8.20
2023-03-16T16:19:23.900Z,5.90
2023-03-16T16:21:52.236Z,7.72
2023-03-16T16:24:20.241Z,5.90
2023-03-16T16:26:54.153Z,4.75
2023-03-16T16:29:24.817Z,4.47
2023-03-16T16:31:53.284Z,3.90
2023-03-16T16:34:25.295Z,4.30
2023-03-16T16:36:53.989Z,7.07
2023-03-16T16:39:22.980Z,6.50
2023-03-16T16:41:54.479Z,4.68
2023-03-16T16:44:25.010Z,5.15
2023-03-16T16:46:53.712Z,6.07
2023-03-16T16:49:25.915Z,3.63
2023-03-16T16:51:55.028Z,5.55
2023-03-16T16:54:24.788Z,6.55
2023-03-16T16:56:55.606Z,3.72
2023-03-16T16:59:26.075Z,4.50
2023-03-16T17:01:54.964Z,5.60
2023-03-16T17:04:25.955Z,6.32
2023-03-16T17:06:58.195Z,5.93
2023-03-16T17:09:27.858Z,6.18
2023-03-16T17:11:58.641Z,4.95
2023-03-16T17:14:28.170Z,5.88
2023-03-16T17:16:57.554Z,6.65
2023-03-16T17:19:28.787Z,5.75
2023-03-16T17:21:59.177Z,4.68
2023-03-16T17:24:28.706Z,5.97
2023-03-16T17:26:59.910Z,6.05
2023-03-16T17:29:31.948Z,5.88
2023-03-16T17:32:01.232Z,2.78
2023-03-16T17:34:33.399Z,4.35
2023-03-16T17:37:01.695Z,6.05
2023-03-16T17:39:31.799Z,5.32
2023-03-16T17:42:01.495Z,6.80
2023-03-16T17:44:33.704Z,5.40
2023-03-16T17:47:02.012Z,3.17
2023-03-16T17:49:32.018Z,5.00
2023-03-16T17:51:59.926Z,4.57
2023-03-16T17:54:28.353Z,3.95
2023-03-16T17:56:56.504Z,4.18
2023-03-16T17:59:24.604Z,5.68
2023-03-16T18:01:52.697Z,4.00
2023-03-16T18:04:22.511Z,8.40
2023-03-16T18:06:52.791Z,4.68
2023-03-16T18:09:21.732Z,6.68
2023-03-16T18:11:52.231Z,4.93
2023-03-16T18:14:26.434Z,6.35
2023-03-16T18:16:55.599Z,4.50
2023-03-16T18:19:25.775Z,2.75
2023-03-16T18:21:55.323Z,10.77
2023-03-16T18:24:26.641Z,4.38
2023-03-16T18:26:55.226Z,7.63
2023-03-16T18:29:24.094Z,4.93
2023-03-16T18:31:56.277Z,4.18
2023-03-16T18:34:28.935Z,4.47
2023-03-16T18:37:00.796Z,4.43
2023-03-16T18:39:28.728Z,10.40
2023-03-16T18:41:56.959Z,5.43
2023-03-16T18:44:26.879Z,8.48
2023-03-16T18:47:01.406Z,6.07
2023-03-16T18:49:34.005Z,7.97
2023-03-16T18:52:04.212Z,5.68
2023-03-16T18:54:35.440Z,4.68
2023-03-16T18:57:05.649Z,5.55
2023-03-16T18:59:33.631Z,7.00
2023-03-16T19:02:01.750Z,7.13
2023-03-16T19:04:32.947Z,5.32
2023-03-16T19:07:01.518Z,7.93
2023-03-16T19:09:35.144Z,6.43
2023-03-16T19:12:03.729Z,7.85
2023-03-16T19:14:33.276Z,7.05
2023-03-16T19:17:01.322Z,7.32
2023-03-16T19:19:29.279Z,10.20
2023-03-16T19:21:59.551Z,5.18
2023-03-16T19:24:31.271Z,5.97
2023-03-16T19:26:59.578Z,9.20
2023-03-16T19:29:31.742Z,10.55
2023-03-16T19:32:00.515Z,7.50
2023-03-16T19:34:28.837Z,6.30
2023-03-16T19:36:56.839Z,8.75
2023-03-16T19:39:25.497Z,9.05
2023-03-16T19:41:57.666Z,7.80
2023-03-16T19:44:28.571Z,8.10
2023-03-16T19:46:59.054Z,10.23
2023-03-16T19:49:29.376Z,7.20
2023-03-16T19:51:57.737Z,7.60
2023-03-16T19:54:27.131Z,6.90
2023-03-16T19:56:59.094Z,8.32
2023-03-16T19:59:32.623Z,7.05
2023-03-16T20:02:01.108Z,7.97
2023-03-16T20:04:29.307Z,8.13
2023-03-16T20:06:57.215Z,7.68
2023-03-16T20:09:25.198Z,6.47
2023-03-16T20:11:53.421Z,9.10
2023-03-16T20:14:33.927Z,8.70
2023-03-16T20:17:02.132Z,8.55
2023-03-16T20:19:30.529Z,9.48
2023-03-16T20:21:58.632Z,7.80
2023-03-16T20:24:28.709Z,8.02
2023-03-16T20:26:56.681Z,8.90
2023-03-16T20:29:31.705Z,6.60
2023-03-16T20:32:00.640Z,9.00
2023-03-16T20:34:31.131Z,7.82
2023-03-16T20:36:59.670Z,8.40
2023-03-16T20:39:27.914Z,6.93
2023-03-16T20:41:55.998Z,7.50
2023-03-16T20:44:25.492Z,6.68
2023-03-16T20:46:54.791Z,8.50
2023-03-16T20:49:40.672Z,11.93
2023-03-16T20:52:16.273Z,8.40
2023-03-16T20:54:44.262Z,6.53
2023-03-16T20:57:19.985Z,5.90
2023-03-16T21:02:28.710Z,7.57
2023-03-16T21:04:57.360Z,5.15
2023-03-16T21:07:25.588Z,7.95
2023-03-16T21:09:53.797Z,7.28
2023-03-16T21:12:26.168Z,6.85
2023-03-16T21:14:54.583Z,4.93
2023-03-16T21:17:33.321Z,5.15
2023-03-16T21:20:02.001Z,5.45
2023-03-16T21:22:31.553Z,8.05
2023-03-16T21:24:59.886Z,5.95
2023-03-16T21:27:31.255Z,6.15
2023-03-16T21:30:01.860Z,5.07
2023-03-16T21:32:31.248Z,4.60
2023-03-16T21:34:59.180Z,3.70
2023-03-16T21:37:27.979Z,6.28
2023-03-16T21:39:56.063Z,8.02
2023-03-16T21:42:24.128Z,4.05
2023-03-16T21:44:52.348Z,7.05
2023-03-16T21:47:25.008Z,7.80
2023-03-16T21:49:54.849Z,4.57
2023-03-16T21:52:24.845Z,5.18
2023-03-16T21:54:53.328Z,6.05
2023-03-16T21:57:21.381Z,4.20
2023-03-16T21:59:50.284Z,5.38
2023-03-16T22:02:22.660Z,4.93
2023-03-16T22:04:51.762Z,5.18
2023-03-16T22:07:23.035Z,6.15
2023-03-16T22:09:51.342Z,9.40
2023-03-16T22:12:19.396Z,4.70
2023-03-16T22:14:47.541Z,5.57
2023-03-16T22:17:21.991Z,7.60
2023-03-16T22:19:50.109Z,6.82
2023-03-16T22:22:18.552Z,3.38
2023-03-16T22:24:48.047Z,5.20
2023-03-16T22:27:26.059Z,5.72
2023-03-16T22:29:54.028Z,7.05
2023-03-16T22:32:23.620Z,5.60
2023-03-16T22:34:53.826Z,4.38
2023-03-16T22:37:25.271Z,5.88
2023-03-16T22:39:57.303Z,4.47
2023-03-16T22:42:29.121Z,4.70
2023-03-16T22:44:57.310Z,3.85
2023-03-16T22:47:27.851Z,4.82
2023-03-16T22:49:56.464Z,5.70
2023-03-16T22:52:29.244Z,4.88
2023-03-16T22:54:59.707Z,5.55
2023-03-16T22:57:29.181Z,5.60
2023-03-16T22:59:57.561Z,3.92
2023-03-16T23:02:27.771Z,5.00
2023-03-16T23:04:55.977Z,3.70
2023-03-16T23:07:23.974Z,4.93
2023-03-16T23:09:52.317Z,8.02
2023-03-16T23:12:23.236Z,5.03
2023-03-16T23:14:51.322Z,4.45
2023-03-16T23:17:22.360Z,6.15
2023-03-16T23:19:50.531Z,5.47
2023-03-16T23:22:18.413Z,4.45
2023-03-16T23:24:46.322Z,6.90
2023-03-16T23:27:18.747Z,5.82
2023-03-16T23:29:49.002Z,5.82
2023-03-16T23:32:18.002Z,5.68
2023-03-16T23:34:46.083Z,4.90
2023-03-16T23:37:13.931Z,6.70
2023-03-16T23:39:42.273Z,7.97
2023-03-16T23:42:10.976Z,8.80
2023-03-16T23:44:39.030Z,6.80
2023-03-16T23:47:10.743Z,4.75
2023-03-16T23:49:42.160Z,5.40
2023-03-16T23:52:13.460Z,6.03
2023-03-16T23:54:41.380Z,5.20
2023-03-16T23:57:09.974Z,5.32
2023-03-16T23:59:37.836Z,6.43
